createdAt,value
2018-05-25T00:00:22.721Z,20.10
2018-05-25T00:00:56.077Z,20.10
2018-05-25T00:01:28.642Z,20.10
2018-05-25T00:02:01.211Z,20.10
2018-05-25T00:02:33.823Z,20.10
2018-05-25T00:03:06.433Z,20.10
2018-05-25T00:03:38.996Z,20.10
2018-05-25T00:04:11.588Z,20.10
2018-05-25T00:04:44.921Z,20.10
2018-05-25T00:05:17.515Z,20.10
2018-05-25T00:05:50.106Z,20.10
2018-05-25T00:06:22.668Z,20.10
2018-05-25T00:06:55.232Z,20.00
2018-05-25T00:07:27.992Z,20.00
2018-05-25T00:08:00.579Z,19.90
2018-05-25T00:08:33.143Z,19.90
2018-05-25T00:09:06.529Z,19.90
2018-05-25T00:09:39.185Z,19.90
2018-05-25T00:10:11.749Z,19.90
2018-05-25T00:10:44.435Z,19.80
2018-05-25T00:11:17.302Z,19.80
2018-05-25T00:11:49.863Z,19.80
2018-05-25T00:12:22.436Z,19.80
2018-05-25T00:12:55.167Z,19.80
2018-05-25T00:13:27.753Z,19.80
2018-05-25T00:14:00.356Z,19.80
2018-05-25T00:14:32.935Z,19.70
2018-05-25T00:15:05.559Z,19.70
2018-05-25T00:15:38.137Z,19.70
2018-05-25T00:16:10.715Z,19.70
2018-05-25T00:16:43.310Z,19.80
2018-05-25T00:17:16.053Z,19.80
2018-05-25T00:17:48.664Z,19.80
2018-05-25T00:18:21.238Z,19.70
2018-05-25T00:18:53.820Z,19.70
2018-05-25T00:19:26.645Z,19.70
2018-05-25T00:19:59.205Z,19.60
2018-05-25T00:20:31.807Z,19.60
2018-05-25T00:21:04.387Z,19.60
2018-05-25T00:21:37.151Z,19.60
2018-05-25T00:22:09.743Z,19.60
2018-05-25T00:22:42.378Z,19.60
2018-05-25T00:23:15.099Z,19.60
2018-05-25T00:23:48.426Z,19.60
2018-05-25T00:24:21.298Z,19.60
2018-05-25T00:24:53.889Z,19.60
2018-05-25T00:25:26.453Z,19.60
2018-05-25T00:25:59.059Z,19.60
2018-05-25T00:26:32.422Z,19.60
2018-05-25T00:27:04.990Z,19.60
2018-05-25T00:27:37.558Z,19.70
2018-05-25T00:28:10.144Z,19.70
2018-05-25T00:28:42.753Z,19.70
2018-05-25T00:29:15.316Z,19.70
2018-05-25T00:29:47.906Z,19.70
2018-05-25T00:30:20.497Z,19.70
2018-05-25T00:30:53.856Z,19.70
2018-05-25T00:31:26.435Z,19.60
2018-05-25T00:31:59.006Z,19.60
2018-05-25T00:32:31.612Z,19.60
2018-05-25T00:33:04.187Z,19.50
2018-05-25T00:33:37.803Z,19.60
2018-05-25T00:34:10.382Z,19.50
2018-05-25T00:34:42.956Z,19.50
2018-05-25T00:35:15.551Z,19.50
2018-05-25T00:35:48.127Z,19.50
2018-05-25T00:36:20.764Z,19.50
2018-05-25T00:36:53.326Z,19.40
2018-05-25T00:37:25.963Z,19.40
2018-05-25T00:37:58.732Z,19.40
2018-05-25T00:38:31.294Z,19.40
2018-05-25T00:39:03.874Z,19.50
2018-05-25T00:39:36.734Z,19.50
2018-05-25T00:40:09.297Z,19.50
2018-05-25T00:40:41.864Z,19.50
2018-05-25T00:41:14.440Z,19.50
2018-05-25T00:41:47.018Z,19.40
2018-05-25T00:42:19.596Z,19.40
2018-05-25T00:42:52.164Z,19.40
2018-05-25T00:43:24.746Z,19.40
2018-05-25T00:43:57.323Z,19.40
2018-05-25T00:44:29.905Z,19.40
2018-05-25T00:45:02.477Z,19.40
2018-05-25T00:45:35.088Z,19.40
2018-05-25T00:46:07.676Z,19.30
2018-05-25T00:46:40.249Z,19.40
2018-05-25T00:47:12.819Z,19.40
2018-05-25T00:47:45.387Z,19.40
2018-05-25T00:48:17.953Z,19.40
2018-05-25T00:48:50.549Z,19.40
2018-05-25T00:49:23.120Z,19.40
2018-05-25T00:49:55.694Z,19.30
2018-05-25T00:50:28.328Z,19.30
2018-05-25T00:51:00.929Z,19.30
2018-05-25T00:51:33.489Z,19.30
2018-05-25T00:52:06.064Z,19.20
2018-05-25T00:52:38.656Z,19.20
2018-05-25T00:53:11.225Z,19.20
2018-05-25T00:53:43.794Z,19.20
2018-05-25T00:54:16.415Z,19.20
2018-05-25T00:55:00.650Z,19.20
2018-05-25T00:55:39.978Z,19.20
2018-05-25T00:56:12.613Z,19.20
2018-05-25T00:56:45.197Z,19.20
2018-05-25T00:57:17.795Z,19.20
2018-05-25T00:57:50.375Z,19.20
2018-05-25T00:58:22.942Z,19.20
2018-05-25T00:58:55.524Z,19.20
2018-05-25T00:59:28.123Z,19.10
2018-05-25T01:00:00.916Z,19.20
2018-05-25T01:00:33.501Z,19.10
2018-05-25T01:01:06.179Z,19.10
2018-05-25T01:01:38.766Z,19.10
2018-05-25T01:02:12.107Z,19.10
2018-05-25T01:02:44.686Z,19.10
2018-05-25T01:03:17.263Z,19.10
2018-05-25T01:03:49.857Z,19.10
2018-05-25T01:04:22.424Z,19.10
2018-05-25T01:04:55.019Z,19.10
2018-05-25T01:05:27.592Z,19.10
2018-05-25T01:06:00.170Z,19.00
2018-05-25T01:06:32.755Z,19.00
2018-05-25T01:07:06.100Z,19.00
2018-05-25T01:07:38.667Z,19.00
2018-05-25T01:08:11.264Z,19.00
2018-05-25T01:08:43.849Z,19.00
2018-05-25T01:09:16.460Z,19.00
2018-05-25T01:09:49.028Z,18.90
2018-05-25T01:10:21.609Z,19.00
2018-05-25T01:10:54.208Z,19.00
2018-05-25T01:11:26.954Z,19.00
2018-05-25T01:11:59.549Z,18.90
2018-05-25T01:12:32.304Z,18.90
2018-05-25T01:13:04.869Z,18.90
2018-05-25T01:13:37.470Z,18.80
2018-05-25T01:14:10.105Z,18.80
2018-05-25T01:14:42.701Z,18.80
2018-05-25T01:15:15.486Z,18.80
2018-05-25T01:15:48.069Z,18.80
2018-05-25T01:16:20.649Z,18.80
2018-05-25T01:16:53.226Z,18.80
2018-05-25T01:17:25.829Z,18.80
2018-05-25T01:17:58.401Z,18.80
2018-05-25T01:18:30.977Z,18.70
2018-05-25T01:19:03.964Z,18.70
2018-05-25T01:19:36.626Z,18.70
2018-05-25T01:20:09.221Z,18.70
2018-05-25T01:20:42.112Z,18.70
2018-05-25T01:21:14.719Z,18.70
2018-05-25T01:21:47.294Z,18.70
2018-05-25T01:22:19.885Z,18.70
2018-05-25T01:22:53.207Z,18.70
2018-05-25T01:23:25.890Z,18.70
2018-05-25T01:23:58.491Z,18.80
2018-05-25T01:24:31.842Z,18.80
2018-05-25T01:25:04.437Z,18.80
2018-05-25T01:25:37.043Z,18.80
2018-05-25T01:26:09.858Z,18.80
2018-05-25T01:26:42.447Z,18.80
2018-05-25T01:27:15.012Z,18.70
2018-05-25T01:27:47.605Z,18.70
2018-05-25T01:28:20.461Z,18.70
2018-05-25T01:28:53.141Z,18.70
2018-05-25T01:29:25.714Z,18.70
2018-05-25T01:29:58.340Z,18.70
2018-05-25T01:30:30.968Z,18.70
2018-05-25T01:31:03.712Z,18.70
2018-05-25T01:31:36.291Z,18.70
2018-05-25T01:32:08.887Z,18.70
2018-05-25T01:32:41.553Z,18.70
2018-05-25T01:33:14.160Z,18.70
2018-05-25T01:33:47.879Z,18.70
2018-05-25T01:34:20.502Z,18.60
2018-05-25T01:34:53.077Z,18.60
2018-05-25T01:35:26.418Z,18.60
2018-05-25T01:35:58.977Z,18.60
2018-05-25T01:36:31.551Z,18.50
2018-05-25T01:37:04.238Z,18.50
2018-05-25T01:37:36.816Z,18.50
2018-05-25T01:38:09.392Z,18.50
2018-05-25T01:38:41.969Z,18.50
2018-05-25T01:39:14.559Z,18.40
2018-05-25T01:39:47.131Z,18.40
2018-05-25T01:40:19.705Z,18.40
2018-05-25T01:40:52.311Z,18.50
2018-05-25T01:41:24.950Z,18.40
2018-05-25T01:41:57.585Z,18.40
2018-05-25T01:42:30.157Z,18.40
2018-05-25T01:43:03.513Z,18.40
2018-05-25T01:43:36.141Z,18.40
2018-05-25T01:44:08.716Z,18.40
2018-05-25T01:44:41.272Z,18.50
2018-05-25T01:45:13.844Z,18.40
2018-05-25T01:45:46.556Z,18.40
2018-05-25T01:46:19.119Z,18.40
2018-05-25T01:46:51.680Z,18.50
2018-05-25T01:47:24.259Z,18.50
2018-05-25T01:47:57.090Z,18.50
2018-05-25T01:48:29.678Z,18.50
2018-05-25T01:49:02.243Z,18.50
2018-05-25T01:49:34.882Z,18.50
2018-05-25T01:50:07.433Z,18.50
2018-05-25T01:50:40.040Z,18.60
2018-05-25T01:51:12.652Z,18.60
2018-05-25T01:51:45.243Z,18.60
2018-05-25T01:52:17.811Z,18.50
2018-05-25T01:52:50.391Z,18.50
2018-05-25T01:53:23.004Z,18.50
2018-05-25T01:53:55.593Z,18.40
2018-05-25T01:54:28.195Z,18.40
2018-05-25T01:55:00.776Z,18.40
2018-05-25T01:55:33.358Z,18.40
2018-05-25T01:56:07.329Z,18.40
2018-05-25T01:56:40.693Z,18.40
2018-05-25T01:57:13.269Z,18.40
2018-05-25T01:57:46.675Z,18.40
2018-05-25T01:58:19.253Z,18.40
2018-05-25T01:58:52.613Z,18.50
2018-05-25T01:59:25.210Z,18.40
2018-05-25T01:59:57.797Z,18.50
2018-05-25T02:00:30.378Z,18.50
2018-05-25T02:01:02.953Z,18.50
2018-05-25T02:01:35.538Z,18.40
2018-05-25T02:02:08.121Z,18.40
2018-05-25T02:02:41.455Z,18.40
2018-05-25T02:03:14.795Z,18.40
2018-05-25T02:03:47.380Z,18.40
2018-05-25T02:04:19.998Z,18.40
2018-05-25T02:04:53.356Z,18.30
2018-05-25T02:05:26.011Z,18.30
2018-05-25T02:05:58.604Z,18.30
2018-05-25T02:06:31.173Z,18.30
2018-05-25T02:07:03.759Z,18.20
2018-05-25T02:07:36.332Z,18.20
2018-05-25T02:08:08.919Z,18.20
2018-05-25T02:08:41.890Z,18.30
2018-05-25T02:09:17.533Z,18.30
2018-05-25T02:09:50.157Z,18.20
2018-05-25T02:10:23.511Z,18.10
2018-05-25T02:10:56.098Z,18.10
2018-05-25T02:11:28.672Z,18.10
2018-05-25T02:12:01.245Z,18.20
2018-05-25T02:12:33.842Z,18.20
2018-05-25T02:13:06.406Z,18.20
2018-05-25T02:13:39.209Z,18.20
2018-05-25T02:14:12.698Z,18.20
2018-05-25T02:14:45.291Z,18.20
2018-05-25T02:15:18.713Z,18.20
2018-05-25T02:15:51.332Z,18.20
2018-05-25T02:16:23.891Z,18.20
2018-05-25T02:16:56.458Z,18.20
2018-05-25T02:17:29.037Z,18.20
2018-05-25T02:18:01.605Z,18.20
2018-05-25T02:18:34.194Z,18.20
2018-05-25T02:19:06.760Z,18.20
2018-05-25T02:19:39.344Z,18.20
2018-05-25T02:20:11.913Z,18.20
2018-05-25T02:20:44.500Z,18.20
2018-05-25T02:21:17.860Z,18.20
2018-05-25T02:21:50.446Z,18.20
2018-05-25T02:22:23.084Z,18.30
2018-05-25T02:22:55.646Z,18.30
2018-05-25T02:23:28.240Z,18.30
2018-05-25T02:24:00.808Z,18.30
2018-05-25T02:24:33.367Z,18.30
2018-05-25T02:25:05.936Z,18.30
2018-05-25T02:25:38.508Z,18.30
2018-05-25T02:26:11.851Z,18.20
2018-05-25T02:26:44.442Z,18.20
2018-05-25T02:27:17.137Z,18.20
2018-05-25T02:27:49.717Z,18.20
2018-05-25T02:28:22.314Z,18.20
2018-05-25T02:29:34.024Z,18.10
2018-05-25T02:30:06.606Z,18.10
2018-05-25T02:30:39.174Z,18.00
2018-05-25T02:31:11.760Z,18.00
2018-05-25T02:31:44.366Z,18.00
2018-05-25T02:32:16.931Z,18.00
2018-05-25T02:32:49.506Z,18.00
2018-05-25T02:33:22.097Z,18.00
2018-05-25T02:33:55.425Z,18.00
2018-05-25T02:34:28.005Z,18.00
2018-05-25T02:35:00.615Z,18.00
2018-05-25T02:35:33.186Z,17.90
2018-05-25T02:36:05.776Z,17.90
2018-05-25T02:36:38.339Z,17.80
2018-05-25T02:37:11.205Z,17.80
2018-05-25T02:37:43.781Z,17.80
2018-05-25T02:38:16.352Z,17.80
2018-05-25T02:38:48.925Z,17.90
2018-05-25T02:39:21.494Z,17.90
2018-05-25T02:39:54.074Z,17.90
2018-05-25T02:40:27.440Z,17.90
2018-05-25T02:41:00.026Z,17.90
2018-05-25T02:41:32.815Z,17.90
2018-05-25T02:42:05.403Z,17.80
2018-05-25T02:42:37.999Z,17.90
2018-05-25T02:43:10.577Z,17.80
2018-05-25T02:43:43.136Z,17.90
2018-05-25T02:44:15.721Z,17.90
2018-05-25T02:44:48.329Z,17.90
2018-05-25T02:45:20.934Z,17.90
2018-05-25T02:45:53.741Z,17.90
2018-05-25T02:46:26.328Z,17.90
2018-05-25T02:46:58.891Z,17.80
2018-05-25T02:47:31.449Z,17.90
2018-05-25T02:48:04.020Z,17.90
2018-05-25T02:48:36.933Z,17.80
2018-05-25T02:49:09.631Z,17.80
2018-05-25T02:49:42.218Z,17.80
2018-05-25T02:50:14.832Z,17.80
2018-05-25T02:50:47.402Z,17.80
2018-05-25T02:51:19.985Z,17.80
2018-05-25T02:51:52.576Z,17.80
2018-05-25T02:52:25.139Z,17.80
2018-05-25T02:52:58.013Z,17.70
2018-05-25T02:53:30.598Z,17.70
2018-05-25T02:54:03.393Z,17.70
2018-05-25T02:54:36.724Z,17.70
2018-05-25T02:55:09.291Z,17.70
2018-05-25T02:55:41.995Z,17.70
2018-05-25T02:56:14.565Z,17.70
2018-05-25T02:56:47.902Z,17.70
2018-05-25T02:57:20.491Z,17.70
2018-05-25T02:57:53.106Z,17.60
2018-05-25T02:58:25.726Z,17.60
2018-05-25T02:58:58.308Z,17.70
2018-05-25T02:59:30.890Z,17.70
2018-05-25T03:00:03.477Z,17.70
2018-05-25T03:00:36.048Z,17.70
2018-05-25T03:01:08.623Z,17.70
2018-05-25T03:01:41.372Z,17.70
2018-05-25T03:02:13.939Z,17.70
2018-05-25T03:02:46.507Z,17.80
2018-05-25T03:03:19.105Z,17.80
2018-05-25T03:03:51.669Z,17.80
2018-05-25T03:04:24.262Z,17.80
2018-05-25T03:04:57.743Z,17.80
2018-05-25T03:05:30.309Z,17.80
2018-05-25T03:06:03.647Z,17.90
2018-05-25T03:06:36.719Z,17.80
2018-05-25T03:07:09.612Z,17.80
2018-05-25T03:07:42.174Z,17.80
2018-05-25T03:08:14.770Z,17.80
2018-05-25T03:08:47.369Z,17.90
2018-05-25T03:09:19.945Z,17.80
2018-05-25T03:09:52.540Z,17.80
2018-05-25T03:10:25.129Z,17.80
2018-05-25T03:12:01.315Z,17.80
2018-05-25T03:12:34.010Z,17.80
2018-05-25T03:13:07.321Z,17.80
2018-05-25T03:13:39.991Z,17.70
2018-05-25T03:14:12.623Z,17.70
2018-05-25T03:14:45.188Z,17.70
2018-05-25T03:15:17.772Z,17.70
2018-05-25T03:15:50.337Z,17.70
2018-05-25T03:16:23.088Z,17.70
2018-05-25T03:16:55.685Z,17.70
2018-05-25T03:17:29.042Z,17.70
2018-05-25T03:18:01.629Z,17.70
2018-05-25T03:18:34.303Z,17.60
2018-05-25T03:19:07.743Z,17.60
2018-05-25T03:19:40.312Z,17.60
2018-05-25T03:20:12.890Z,17.60
2018-05-25T03:20:45.477Z,17.60
2018-05-25T03:21:18.974Z,17.60
2018-05-25T03:21:51.593Z,17.60
2018-05-25T03:22:24.271Z,17.60
2018-05-25T03:22:57.031Z,17.60
2018-05-25T03:23:29.759Z,17.60
2018-05-25T03:24:02.488Z,17.60
2018-05-25T03:24:35.058Z,17.50
2018-05-25T03:25:08.417Z,17.50
2018-05-25T03:25:41.010Z,17.50
2018-05-25T03:26:13.674Z,17.50
2018-05-25T03:26:46.195Z,17.40
2018-05-25T03:27:18.798Z,17.50
2018-05-25T03:27:51.363Z,17.50
2018-05-25T03:28:23.932Z,17.50
2018-05-25T03:28:56.713Z,17.50
2018-05-25T03:29:29.504Z,17.50
2018-05-25T03:30:02.077Z,17.50
2018-05-25T03:30:34.637Z,17.50
2018-05-25T03:31:07.196Z,17.40
2018-05-25T03:31:39.795Z,17.40
2018-05-25T03:32:12.379Z,17.40
2018-05-25T03:32:44.944Z,17.40
2018-05-25T03:33:17.521Z,17.40
2018-05-25T03:33:50.074Z,17.40
2018-05-25T03:34:22.684Z,17.40
2018-05-25T03:34:55.527Z,17.50
2018-05-25T03:35:28.998Z,17.40
2018-05-25T03:36:01.563Z,17.40
2018-05-25T03:36:34.140Z,17.50
2018-05-25T03:37:07.503Z,17.40
2018-05-25T03:37:40.277Z,17.40
2018-05-25T03:38:12.857Z,17.50
2018-05-25T03:38:45.601Z,17.40
2018-05-25T03:39:18.200Z,17.50
2018-05-25T03:39:50.795Z,17.50
2018-05-25T03:40:23.418Z,17.50
2018-05-25T03:40:56.025Z,17.50
2018-05-25T03:41:28.614Z,17.50
2018-05-25T03:42:01.256Z,17.50
2018-05-25T03:42:33.858Z,17.50
2018-05-25T03:43:06.466Z,17.50
2018-05-25T03:43:39.044Z,17.50
2018-05-25T03:44:11.629Z,17.50
2018-05-25T03:44:44.207Z,17.40
2018-05-25T03:45:17.010Z,17.50
2018-05-25T03:45:50.483Z,17.50
2018-05-25T03:46:23.119Z,17.40
2018-05-25T03:46:55.772Z,17.40
2018-05-25T03:47:28.363Z,17.40
2018-05-25T03:48:01.072Z,17.50
2018-05-25T03:48:33.767Z,17.50
2018-05-25T03:49:06.350Z,17.50
2018-05-25T03:49:39.965Z,17.50
2018-05-25T03:50:12.543Z,17.50
2018-05-25T03:50:45.113Z,17.50
2018-05-25T03:51:17.677Z,17.40
2018-05-25T03:51:50.295Z,17.40
2018-05-25T03:52:22.875Z,17.50
2018-05-25T03:52:55.446Z,17.50
2018-05-25T03:53:28.017Z,17.50
2018-05-25T03:54:00.633Z,17.40
2018-05-25T03:54:34.134Z,17.40
2018-05-25T03:55:06.791Z,17.40
2018-05-25T03:55:39.415Z,17.40
2018-05-25T03:56:12.752Z,17.40
2018-05-25T03:56:45.465Z,17.40
2018-05-25T03:57:18.866Z,17.40
2018-05-25T03:57:51.466Z,17.40
2018-05-25T03:58:35.932Z,17.50
2018-05-25T03:59:20.132Z,17.40
2018-05-25T04:00:04.378Z,17.40
2018-05-25T04:00:48.909Z,17.40
2018-05-25T04:01:46.311Z,17.50
2018-05-25T04:02:18.931Z,17.50
2018-05-25T04:02:52.923Z,17.60
2018-05-25T04:03:25.709Z,17.60
2018-05-25T04:03:58.289Z,17.60
2018-05-25T04:04:30.924Z,17.60
2018-05-25T04:05:03.501Z,17.60
2018-05-25T04:05:36.085Z,17.60
2018-05-25T04:06:08.656Z,17.60
2018-05-25T04:06:41.267Z,17.70
2018-05-25T04:07:14.596Z,17.70
2018-05-25T04:07:47.169Z,17.70
2018-05-25T04:08:19.805Z,17.70
2018-05-25T04:08:52.389Z,17.70
2018-05-25T04:09:24.973Z,17.70
2018-05-25T04:09:57.740Z,17.70
2018-05-25T04:10:30.312Z,17.70
2018-05-25T04:11:03.019Z,17.70
2018-05-25T04:11:35.612Z,17.70
2018-05-25T04:12:08.177Z,17.80
2018-05-25T04:12:40.757Z,17.80
2018-05-25T04:13:13.347Z,17.80
2018-05-25T04:13:47.305Z,17.70
2018-05-25T04:14:19.983Z,17.70
2018-05-25T04:14:53.267Z,17.80
2018-05-25T04:15:25.908Z,17.80
2018-05-25T04:15:58.648Z,17.80
2018-05-25T04:16:31.245Z,17.80
2018-05-25T04:17:03.808Z,17.80
2018-05-25T04:17:36.395Z,17.80
2018-05-25T04:18:08.957Z,17.80
2018-05-25T04:18:42.317Z,17.80
2018-05-25T04:19:14.931Z,17.80
2018-05-25T04:19:47.537Z,17.80
2018-05-25T04:20:20.111Z,17.80
2018-05-25T04:20:52.722Z,17.80
2018-05-25T04:21:25.301Z,17.80
2018-05-25T04:21:57.871Z,17.80
2018-05-25T04:22:30.654Z,17.80
2018-05-25T04:23:03.220Z,17.80
2018-05-25T04:23:35.804Z,17.80
2018-05-25T04:24:08.360Z,17.80
2018-05-25T04:24:40.932Z,17.80
2018-05-25T04:25:13.509Z,17.80
2018-05-25T04:25:46.111Z,17.80
2018-05-25T04:26:18.692Z,17.90
2018-05-25T04:26:51.284Z,17.90
2018-05-25T04:27:23.869Z,17.90
2018-05-25T04:27:56.432Z,17.90
2018-05-25T04:28:29.025Z,17.90
2018-05-25T04:29:01.715Z,17.90
2018-05-25T04:29:34.280Z,18.00
2018-05-25T04:30:06.871Z,17.90
2018-05-25T04:30:39.454Z,17.90
2018-05-25T04:31:12.166Z,17.90
2018-05-25T04:31:44.844Z,17.90
2018-05-25T04:32:17.410Z,17.90
2018-05-25T04:32:49.966Z,17.90
2018-05-25T04:33:22.552Z,17.90
2018-05-25T04:33:55.149Z,17.90
2018-05-25T04:34:27.735Z,17.90
2018-05-25T04:35:01.074Z,17.80
2018-05-25T04:35:33.770Z,17.80
2018-05-25T04:36:06.378Z,17.90
2018-05-25T04:36:39.168Z,17.90
2018-05-25T04:37:11.748Z,17.90
2018-05-25T04:37:44.308Z,18.00
2018-05-25T04:38:16.998Z,17.90
2018-05-25T04:38:49.575Z,18.00
2018-05-25T04:39:22.446Z,18.00
2018-05-25T04:39:55.264Z,18.00
2018-05-25T04:40:28.107Z,18.00
2018-05-25T04:41:00.678Z,18.00
2018-05-25T04:41:33.247Z,18.00
2018-05-25T04:42:05.851Z,18.00
2018-05-25T04:42:38.447Z,18.00
2018-05-25T04:43:11.076Z,18.10
2018-05-25T04:43:43.673Z,18.10
2018-05-25T04:44:16.380Z,18.10
2018-05-25T04:44:48.948Z,18.10
2018-05-25T04:45:21.565Z,18.10
2018-05-25T04:45:54.133Z,18.10
2018-05-25T04:46:26.714Z,18.10
2018-05-25T04:46:59.272Z,18.10
2018-05-25T04:47:31.856Z,18.10
2018-05-25T04:48:05.263Z,18.20
2018-05-25T04:48:37.848Z,18.10
2018-05-25T04:49:10.435Z,18.20
2018-05-25T04:49:43.024Z,18.20
2018-05-25T04:50:15.776Z,18.30
2018-05-25T04:50:48.339Z,18.30
2018-05-25T04:51:20.913Z,18.30
2018-05-25T04:51:54.349Z,18.30
2018-05-25T04:52:27.065Z,18.30
2018-05-25T04:52:59.621Z,18.30
2018-05-25T04:53:32.190Z,18.40
2018-05-25T04:54:04.967Z,18.40
2018-05-25T04:54:38.294Z,18.40
2018-05-25T04:55:10.888Z,18.30
2018-05-25T04:55:43.468Z,18.20
2018-05-25T04:56:17.006Z,18.40
2018-05-25T04:56:50.621Z,18.40
2018-05-25T04:57:23.209Z,18.30
2018-05-25T04:57:55.982Z,18.30
2018-05-25T04:58:28.567Z,18.30
2018-05-25T04:59:01.164Z,18.30
2018-05-25T04:59:33.720Z,18.30
2018-05-25T05:00:06.340Z,18.30
2018-05-25T05:00:38.917Z,18.40
2018-05-25T05:01:11.480Z,18.40
2018-05-25T05:01:44.048Z,18.30
2018-05-25T05:02:16.627Z,18.30
2018-05-25T05:02:49.959Z,18.30
2018-05-25T05:03:22.587Z,18.30
2018-05-25T05:03:55.474Z,18.30
2018-05-25T05:04:28.045Z,18.30
2018-05-25T05:05:00.851Z,18.40
2018-05-25T05:05:33.448Z,18.40
2018-05-25T05:06:06.171Z,18.40
2018-05-25T05:06:38.756Z,18.50
2018-05-25T05:07:11.327Z,18.50
2018-05-25T05:07:43.912Z,18.50
2018-05-25T05:08:16.561Z,18.50
2018-05-25T05:08:49.345Z,18.50
2018-05-25T05:09:21.938Z,18.50
2018-05-25T05:09:54.555Z,18.60
2018-05-25T05:10:27.339Z,18.50
2018-05-25T05:10:59.904Z,18.60
2018-05-25T05:11:32.601Z,18.60
2018-05-25T05:12:05.474Z,18.60
2018-05-25T05:12:38.049Z,18.60
2018-05-25T05:13:10.920Z,18.60
2018-05-25T05:13:43.548Z,18.60
2018-05-25T05:14:16.956Z,18.70
2018-05-25T05:14:49.598Z,18.70
2018-05-25T05:15:22.131Z,18.70
2018-05-25T05:15:55.581Z,18.70
2018-05-25T05:16:28.264Z,18.70
2018-05-25T05:17:00.861Z,18.80
2018-05-25T05:17:33.420Z,18.80
2018-05-25T05:18:06.122Z,18.90
2018-05-25T05:18:38.713Z,18.90
2018-05-25T05:19:11.455Z,18.90
2018-05-25T05:19:44.048Z,18.90
2018-05-25T05:20:16.648Z,19.00
2018-05-25T05:20:49.233Z,19.00
2018-05-25T05:21:21.807Z,19.00
2018-05-25T05:21:54.392Z,19.10
2018-05-25T05:22:27.728Z,19.20
2018-05-25T05:24:08.415Z,19.30
2018-05-25T05:24:41.074Z,19.40
2018-05-25T05:25:13.664Z,19.40
2018-05-25T05:29:12.465Z,19.60
2018-05-25T05:29:45.073Z,19.50
2018-05-25T05:30:17.642Z,19.60
2018-05-25T05:30:50.242Z,19.60
2018-05-25T05:31:22.873Z,19.60
2018-05-25T05:31:55.446Z,19.60
2018-05-25T05:33:01.949Z,19.60
2018-05-25T05:33:34.715Z,19.70
2018-05-25T05:34:07.294Z,19.70
2018-05-25T05:34:40.470Z,19.70
2018-05-25T05:35:13.036Z,19.80
2018-05-25T05:35:45.598Z,19.70
2018-05-25T05:36:18.169Z,19.70
2018-05-25T05:36:50.740Z,19.70
2018-05-25T05:37:23.713Z,19.80
2018-05-25T05:37:56.295Z,19.80
2018-05-25T05:38:28.902Z,19.70
2018-05-25T05:39:01.627Z,19.70
2018-05-25T05:39:35.483Z,19.70
2018-05-25T05:40:42.063Z,19.70
2018-05-25T05:41:14.662Z,19.70
2018-05-25T05:41:47.259Z,19.80
2018-05-25T05:42:19.931Z,19.80
2018-05-25T05:42:52.520Z,19.80
2018-05-25T05:43:25.163Z,19.80
2018-05-25T05:43:57.765Z,19.80
2018-05-25T05:44:30.443Z,19.80
2018-05-25T05:45:03.284Z,19.80
2018-05-25T05:45:35.889Z,19.80
2018-05-25T05:46:08.520Z,19.90
2018-05-25T05:46:41.764Z,19.90
2018-05-25T05:47:14.388Z,19.90
2018-05-25T05:47:47.072Z,20.00
2018-05-25T05:48:19.765Z,20.00
2018-05-25T05:48:54.245Z,20.10
2018-05-25T05:49:26.869Z,20.00
2018-05-25T05:49:59.441Z,20.10
2018-05-25T05:50:32.014Z,20.10
2018-05-25T05:51:04.597Z,20.10
2018-05-25T05:51:37.193Z,20.10
2018-05-25T05:52:10.545Z,20.10
2018-05-25T05:52:43.160Z,20.10
2018-05-25T05:53:54.751Z,20.20
2018-05-25T05:54:27.385Z,20.20
2018-05-25T05:55:00.743Z,20.20
2018-05-25T05:55:33.336Z,20.20
2018-05-25T05:56:06.112Z,20.20
2018-05-25T05:56:38.776Z,20.20
2018-05-25T05:57:11.363Z,20.30
2018-05-25T05:57:44.089Z,20.30
2018-05-25T05:58:16.675Z,20.30
2018-05-25T05:58:49.223Z,20.40
2018-05-25T05:59:21.838Z,20.40
2018-05-25T05:59:54.483Z,20.40
2018-05-25T06:00:27.067Z,20.40
2018-05-25T06:00:59.654Z,20.50
2018-05-25T06:01:32.240Z,20.50
2018-05-25T06:02:06.200Z,20.60
2018-05-25T06:02:38.762Z,20.60
2018-05-25T06:03:11.395Z,20.70
2018-05-25T06:03:43.983Z,20.70
2018-05-25T06:04:16.759Z,20.70
2018-05-25T06:04:49.466Z,20.80
2018-05-25T06:05:22.904Z,20.90
2018-05-25T06:05:55.498Z,20.80
2018-05-25T06:06:28.090Z,20.90
2018-05-25T06:07:00.849Z,20.90
2018-05-25T06:07:33.448Z,20.90
2018-05-25T06:08:06.759Z,21.00
2018-05-25T06:08:39.389Z,21.00
2018-05-25T06:09:12.444Z,21.10
2018-05-25T06:09:46.018Z,21.10
2018-05-25T06:10:18.734Z,21.10
2018-05-25T06:10:51.382Z,21.20
2018-05-25T06:11:23.987Z,21.20
2018-05-25T06:11:56.592Z,21.30
2018-05-25T06:12:29.201Z,21.30
2018-05-25T06:13:02.168Z,21.30
2018-05-25T06:13:34.860Z,21.40
2018-05-25T06:14:07.439Z,21.40
2018-05-25T06:14:40.049Z,21.50
2018-05-25T06:15:12.609Z,21.40
2018-05-25T06:15:45.271Z,21.40
2018-05-25T06:16:17.841Z,21.40
2018-05-25T06:16:50.433Z,21.40
2018-05-25T06:17:23.088Z,21.40
2018-05-25T06:17:55.835Z,21.50
2018-05-25T06:18:28.402Z,21.40
2018-05-25T06:19:01.246Z,21.50
2018-05-25T06:19:33.821Z,21.50
2018-05-25T06:20:07.294Z,21.60
2018-05-25T06:20:39.911Z,21.60
2018-05-25T06:21:12.619Z,21.60
2018-05-25T06:21:45.192Z,21.60
2018-05-25T06:22:18.157Z,21.70
2018-05-25T06:22:52.032Z,21.70
2018-05-25T06:23:24.721Z,21.80
2018-05-25T06:23:58.418Z,21.80
2018-05-25T06:24:31.828Z,21.90
2018-05-25T06:25:04.417Z,21.90
2018-05-25T06:25:37.243Z,21.80
2018-05-25T06:26:10.097Z,21.90
2018-05-25T06:26:43.020Z,21.90
2018-05-25T06:27:16.694Z,21.90
2018-05-25T06:27:49.272Z,22.00
2018-05-25T06:28:21.846Z,22.00
2018-05-25T06:28:54.408Z,21.90
2018-05-25T06:29:26.983Z,22.00
2018-05-25T06:29:59.648Z,22.00
2018-05-25T06:30:32.513Z,22.00
2018-05-25T06:31:05.119Z,22.10
2018-05-25T06:31:39.114Z,22.10
2018-05-25T06:32:11.680Z,22.20
2018-05-25T06:32:44.253Z,22.20
2018-05-25T06:33:16.811Z,22.20
2018-05-25T06:33:49.739Z,22.20
2018-05-25T06:34:22.525Z,22.30
2018-05-25T06:34:55.190Z,22.30
2018-05-25T06:35:28.319Z,22.30
2018-05-25T06:36:01.156Z,22.40
2018-05-25T06:36:33.768Z,22.40
2018-05-25T06:37:06.440Z,22.40
2018-05-25T06:37:39.021Z,22.40
2018-05-25T06:38:11.645Z,22.50
2018-05-25T06:38:44.216Z,22.40
2018-05-25T06:39:16.915Z,22.40
2018-05-25T06:39:49.506Z,22.40
2018-05-25T06:40:22.590Z,22.50
2018-05-25T06:40:55.180Z,22.40
2018-05-25T06:41:28.022Z,22.40
2018-05-25T06:42:01.343Z,22.40
2018-05-25T06:42:33.967Z,22.40
2018-05-25T06:43:06.748Z,22.40
2018-05-25T06:43:39.430Z,22.50
2018-05-25T06:44:12.148Z,22.50
2018-05-25T06:44:45.430Z,22.50
2018-05-25T06:45:18.894Z,22.60
2018-05-25T06:45:51.504Z,22.60
2018-05-25T06:46:24.215Z,22.60
2018-05-25T06:46:56.856Z,22.60
2018-05-25T06:47:29.990Z,22.70
2018-05-25T06:48:02.569Z,22.70
2018-05-25T06:48:35.431Z,22.70
2018-05-25T06:49:08.010Z,22.70
2018-05-25T06:49:40.572Z,22.70
2018-05-25T06:50:13.156Z,22.80
2018-05-25T06:50:45.755Z,22.80
2018-05-25T06:51:19.388Z,22.80
2018-05-25T06:51:51.953Z,22.80
2018-05-25T06:52:25.610Z,22.90
2018-05-25T06:52:59.181Z,22.90
2018-05-25T06:53:31.763Z,22.90
2018-05-25T06:54:04.408Z,22.80
2018-05-25T06:54:36.959Z,22.80
2018-05-25T06:55:09.590Z,22.80
2018-05-25T06:55:42.170Z,22.80
2018-05-25T06:56:14.731Z,22.90
2018-05-25T06:56:47.652Z,22.90
2018-05-25T06:57:20.221Z,22.90
2018-05-25T06:57:52.912Z,23.00
2018-05-25T06:58:25.598Z,23.00
2018-05-25T06:58:58.917Z,23.00
2018-05-25T06:59:31.514Z,23.10
2018-05-25T07:00:05.056Z,23.10
2018-05-25T07:00:37.907Z,23.10
2018-05-25T07:01:11.559Z,23.30
2018-05-25T07:01:44.120Z,23.30
2018-05-25T07:02:16.758Z,23.40
2018-05-25T07:02:50.319Z,23.50
2018-05-25T07:03:22.953Z,23.50
2018-05-25T07:03:55.554Z,23.70
2018-05-25T07:04:28.235Z,23.70
2018-05-25T07:05:00.981Z,23.80
2018-05-25T07:05:33.762Z,23.90
2018-05-25T07:06:06.341Z,24.00
2018-05-25T07:06:39.794Z,24.10
2018-05-25T07:07:12.373Z,24.10
2018-05-25T07:07:44.950Z,24.20
2018-05-25T07:08:17.575Z,24.20
2018-05-25T07:08:50.299Z,24.30
2018-05-25T07:09:22.997Z,24.30
2018-05-25T07:09:55.545Z,24.40
2018-05-25T07:10:28.110Z,24.40
2018-05-25T07:11:00.687Z,24.50